sensor_id;sensor_type;location;lat;lon;timestamp;pressure;altitude;pressure_sealevel;temperature;humidity
62055;BME280;48653;51.742;-1.256;2023-01-27T00:03:47;102508.92;;;4.83;48.26
62055;BME280;48653;51.742;-1.256;2023-01-27T00:06:12;102507.18;;;5.16;48.48
62055;BME280;48653;51.742;-1.256;2023-01-27T00:08:38;102505.95;;;5.16;49.08
62055;BME280;48653;51.742;-1.256;2023-01-27T00:11:03;102506.31;;;4.62;49.09
62055;BME280;48653;51.742;-1.256;2023-01-27T00:13:28;102513.37;;;4.37;49.30
62055;BME280;48653;51.742;-1.256;2023-01-27T00:15:53;102512.03;;;4.49;49.53
62055;BME280;48653;51.742;-1.256;2023-01-27T00:18:19;102506.06;;;4.60;49.19
62055;BME280;48653;51.742;-1.256;2023-01-27T00:20:43;102508.06;;;4.74;48.87
62055;BME280;48653;51.742;-1.256;2023-01-27T00:23:14;102507.97;;;4.60;48.49
62055;BME280;48653;51.742;-1.256;2023-01-27T00:25:34;102508.09;;;4.20;48.72
62055;BME280;48653;51.742;-1.256;2023-01-27T00:27:59;102504.68;;;4.57;47.75
62055;BME280;48653;51.742;-1.256;2023-01-27T00:30:24;102502.49;;;4.48;48.38
62055;BME280;48653;51.742;-1.256;2023-01-27T00:32:49;102505.41;;;4.36;48.65
62055;BME280;48653;51.742;-1.256;2023-01-27T00:35:15;102515.18;;;4.08;49.40
62055;BME280;48653;51.742;-1.256;2023-01-27T00:37:39;102510.53;;;3.96;49.32
62055;BME280;48653;51.742;-1.256;2023-01-27T00:40:06;102501.05;;;4.66;48.73
62055;BME280;48653;51.742;-1.256;2023-01-27T00:42:30;102506.30;;;3.77;50.19
62055;BME280;48653;51.742;-1.256;2023-01-27T00:44:56;102501.91;;;4.55;49.04
62055;BME280;48653;51.742;-1.256;2023-01-27T00:47:21;102500.88;;;3.38;50.81
62055;BME280;48653;51.742;-1.256;2023-01-27T00:49:47;102500.72;;;3.67;50.30
62055;BME280;48653;51.742;-1.256;2023-01-27T00:52:12;102502.91;;;3.32;50.99
62055;BME280;48653;51.742;-1.256;2023-01-27T00:54:38;102498.72;;;3.54;50.67
62055;BME280;48653;51.742;-1.256;2023-01-27T00:57:03;102489.19;;;3.97;49.72
62055;BME280;48653;51.742;-1.256;2023-01-27T00:59:28;102483.76;;;3.92;50.01
62055;BME280;48653;51.742;-1.256;2023-01-27T01:01:53;102477.36;;;4.13;50.08
62055;BME280;48653;51.742;-1.256;2023-01-27T01:04:19;102479.19;;;2.74;53.07
62055;BME280;48653;51.742;-1.256;2023-01-27T01:06:45;102480.99;;;3.60;51.60
62055;BME280;48653;51.742;-1.256;2023-01-27T01:09:10;102479.29;;;3.71;51.13
62055;BME280;48653;51.742;-1.256;2023-01-27T01:11:35;102476.51;;;3.63;51.71
62055;BME280;48653;51.742;-1.256;2023-01-27T01:14:00;102476.75;;;3.32;51.74
62055;BME280;48653;51.742;-1.256;2023-01-27T01:16:26;102473.33;;;2.80;53.13
62055;BME280;48653;51.742;-1.256;2023-01-27T01:18:51;102470.88;;;3.41;52.36
62055;BME280;48653;51.742;-1.256;2023-01-27T01:21:16;102474.96;;;3.03;52.24
62055;BME280;48653;51.742;-1.256;2023-01-27T01:23:43;102476.95;;;3.61;51.30
62055;BME280;48653;51.742;-1.256;2023-01-27T01:26:08;102475.96;;;3.32;51.73
62055;BME280;48653;51.742;-1.256;2023-01-27T01:28:32;102475.03;;;3.05;51.71
62055;BME280;48653;51.742;-1.256;2023-01-27T01:31:03;102474.73;;;3.00;52.27
62055;BME280;48653;51.742;-1.256;2023-01-27T01:33:24;102475.37;;;3.09;52.40
62055;BME280;48653;51.742;-1.256;2023-01-27T01:35:50;102470.05;;;2.97;52.68
62055;BME280;48653;51.742;-1.256;2023-01-27T01:38:14;102468.03;;;2.49;53.78
62055;BME280;48653;51.742;-1.256;2023-01-27T01:40:41;102471.57;;;3.03;52.92
62055;BME280;48653;51.742;-1.256;2023-01-27T01:43:11;102470.71;;;3.74;51.32
62055;BME280;48653;51.742;-1.256;2023-01-27T01:45:45;102466.88;;;3.33;52.17
62055;BME280;48653;51.742;-1.256;2023-01-27T01:47:56;102471.89;;;3.21;52.13
62055;BME280;48653;51.742;-1.256;2023-01-27T01:50:21;102471.82;;;3.51;51.80
62055;BME280;48653;51.742;-1.256;2023-01-27T01:52:47;102468.11;;;3.73;51.50
62055;BME280;48653;51.742;-1.256;2023-01-27T01:55:17;102461.91;;;3.42;50.84
62055;BME280;48653;51.742;-1.256;2023-01-27T01:57:37;102464.25;;;4.13;50.66
62055;BME280;48653;51.742;-1.256;2023-01-27T02:00:05;102466.67;;;3.59;51.82
62055;BME280;48653;51.742;-1.256;2023-01-27T02:02:28;102464.43;;;3.66;52.04
62055;BME280;48653;51.742;-1.256;2023-01-27T02:04:56;102469.19;;;3.89;52.45
62055;BME280;48653;51.742;-1.256;2023-01-27T02:07:21;102467.95;;;3.28;52.29
62055;BME280;48653;51.742;-1.256;2023-01-27T02:09:44;102468.03;;;3.57;52.12
62055;BME280;48653;51.742;-1.256;2023-01-27T02:12:10;102469.23;;;3.15;53.71
62055;BME280;48653;51.742;-1.256;2023-01-27T02:17:01;102464.29;;;3.46;53.01
62055;BME280;48653;51.742;-1.256;2023-01-27T02:19:31;102466.65;;;3.49;52.43
62055;BME280;48653;51.742;-1.256;2023-01-27T02:21:53;102472.32;;;3.99;52.05
62055;BME280;48653;51.742;-1.256;2023-01-27T02:24:18;102469.35;;;2.97;54.38
62055;BME280;48653;51.742;-1.256;2023-01-27T02:26:43;102463.58;;;4.05;52.59
62055;BME280;48653;51.742;-1.256;2023-01-27T02:29:10;102464.96;;;4.07;52.37
62055;BME280;48653;51.742;-1.256;2023-01-27T02:31:34;102466.38;;;3.69;52.31
62055;BME280;48653;51.742;-1.256;2023-01-27T02:34:02;102465.83;;;4.10;51.65
62055;BME280;48653;51.742;-1.256;2023-01-27T02:36:26;102465.94;;;3.97;51.76
62055;BME280;48653;51.742;-1.256;2023-01-27T02:38:52;102458.15;;;4.11;50.98
62055;BME280;48653;51.742;-1.256;2023-01-27T02:41:18;102459.56;;;4.66;49.61
62055;BME280;48653;51.742;-1.256;2023-01-27T02:43:41;102453.77;;;4.31;50.29
62055;BME280;48653;51.742;-1.256;2023-01-27T02:46:06;102447.58;;;4.14;50.61
62055;BME280;48653;51.742;-1.256;2023-01-27T02:48:31;102447.57;;;3.54;51.87
62055;BME280;48653;51.742;-1.256;2023-01-27T02:50:56;102453.44;;;2.81;53.69
62055;BME280;48653;51.742;-1.256;2023-01-27T02:53:21;102450.50;;;3.73;51.84
62055;BME280;48653;51.742;-1.256;2023-01-27T02:55:46;102446.75;;;4.34;50.87
62055;BME280;48653;51.742;-1.256;2023-01-27T02:58:11;102449.96;;;4.39;51.62
62055;BME280;48653;51.742;-1.256;2023-01-27T03:00:37;102447.80;;;3.32;53.29
62055;BME280;48653;51.742;-1.256;2023-01-27T03:03:02;102443.18;;;2.60;55.37
62055;BME280;48653;51.742;-1.256;2023-01-27T03:05:27;102434.58;;;3.12;54.71
62055;BME280;48653;51.742;-1.256;2023-01-27T03:07:52;102430.98;;;2.69;56.43
62055;BME280;48653;51.742;-1.256;2023-01-27T03:10:18;102430.90;;;2.57;56.11
62055;BME280;48653;51.742;-1.256;2023-01-27T03:12:43;102433.80;;;2.92;56.18
62055;BME280;48653;51.742;-1.256;2023-01-27T03:15:09;102426.86;;;3.23;55.63
62055;BME280;48653;51.742;-1.256;2023-01-27T03:17:35;102422.89;;;2.02;58.21
62055;BME280;48653;51.742;-1.256;2023-01-27T03:20:00;102426.39;;;2.80;56.66
62055;BME280;48653;51.742;-1.256;2023-01-27T03:22:25;102425.31;;;2.03;58.28
62055;BME280;48653;51.742;-1.256;2023-01-27T03:24:51;102421.41;;;3.49;55.48
62055;BME280;48653;51.742;-1.256;2023-01-27T03:27:16;102414.54;;;4.02;53.48
62055;BME280;48653;51.742;-1.256;2023-01-27T03:29:41;102421.62;;;3.50;54.83
62055;BME280;48653;51.742;-1.256;2023-01-27T03:32:07;102427.21;;;3.16;55.44
62055;BME280;48653;51.742;-1.256;2023-01-27T03:34:32;102424.41;;;2.84;56.57
62055;BME280;48653;51.742;-1.256;2023-01-27T03:36:58;102418.86;;;2.66;57.44
62055;BME280;48653;51.742;-1.256;2023-01-27T03:39:24;102412.79;;;2.03;59.20
62055;BME280;48653;51.742;-1.256;2023-01-27T03:41:49;102413.28;;;2.25;58.89
62055;BME280;48653;51.742;-1.256;2023-01-27T03:44:15;102413.24;;;3.01;57.35
62055;BME280;48653;51.742;-1.256;2023-01-27T03:46:40;102411.64;;;3.20;57.00
62055;BME280;48653;51.742;-1.256;2023-01-27T03:49:05;102408.02;;;2.95;56.46
62055;BME280;48653;51.742;-1.256;2023-01-27T03:51:31;102403.13;;;3.52;55.30
62055;BME280;48653;51.742;-1.256;2023-01-27T03:53:56;102397.96;;;3.28;56.09
62055;BME280;48653;51.742;-1.256;2023-01-27T03:56:21;102405.51;;;2.96;56.61
62055;BME280;48653;51.742;-1.256;2023-01-27T03:58:48;102408.09;;;3.47;55.78
62055;BME280;48653;51.742;-1.256;2023-01-27T04:01:14;102412.05;;;2.79;57.05
62055;BME280;48653;51.742;-1.256;2023-01-27T04:03:37;102413.69;;;3.43;57.27
62055;BME280;48653;51.742;-1.256;2023-01-27T04:06:03;102414.01;;;3.47;56.51
62055;BME280;48653;51.742;-1.256;2023-01-27T04:08:28;102413.51;;;3.59;55.60
62055;BME280;48653;51.742;-1.256;2023-01-27T04:10:53;102411.44;;;4.26;54.29
62055;BME280;48653;51.742;-1.256;2023-01-27T04:13:22;102413.58;;;3.87;55.01
62055;BME280;48653;51.742;-1.256;2023-01-27T04:15:45;102409.35;;;3.67;56.13
62055;BME280;48653;51.742;-1.256;2023-01-27T04:18:10;102405.41;;;3.62;56.23
62055;BME280;48653;51.742;-1.256;2023-01-27T04:20:35;102409.67;;;2.54;59.34
62055;BME280;48653;51.742;-1.256;2023-01-27T04:23:00;102407.71;;;3.70;57.17
62055;BME280;48653;51.742;-1.256;2023-01-27T04:25:26;102401.35;;;3.85;55.71
62055;BME280;48653;51.742;-1.256;2023-01-27T04:27:52;102408.61;;;2.70;58.19
62055;BME280;48653;51.742;-1.256;2023-01-27T04:30:17;102410.75;;;2.93;57.48
62055;BME280;48653;51.742;-1.256;2023-01-27T04:32:43;102406.97;;;3.82;56.10
62055;BME280;48653;51.742;-1.256;2023-01-27T04:35:08;102403.36;;;4.00;53.85
62055;BME280;48653;51.742;-1.256;2023-01-27T04:37:34;102406.82;;;3.09;55.66
62055;BME280;48653;51.742;-1.256;2023-01-27T04:40:00;102403.57;;;4.47;52.82
62055;BME280;48653;51.742;-1.256;2023-01-27T04:42:25;102400.26;;;4.19;53.27
62055;BME280;48653;51.742;-1.256;2023-01-27T04:44:51;102399.61;;;3.67;54.24
62055;BME280;48653;51.742;-1.256;2023-01-27T04:47:16;102405.56;;;3.21;55.53
62055;BME280;48653;51.742;-1.256;2023-01-27T04:49:42;102403.31;;;3.61;54.47
62055;BME280;48653;51.742;-1.256;2023-01-27T04:52:08;102395.15;;;3.62;54.75
62055;BME280;48653;51.742;-1.256;2023-01-27T04:54:33;102392.08;;;3.54;54.55
62055;BME280;48653;51.742;-1.256;2023-01-27T04:57:01;102398.72;;;3.63;55.61
62055;BME280;48653;51.742;-1.256;2023-01-27T04:59:24;102398.16;;;3.51;56.16
62055;BME280;48653;51.742;-1.256;2023-01-27T05:01:50;102397.15;;;3.87;56.01
62055;BME280;48653;51.742;-1.256;2023-01-27T05:04:15;102398.89;;;3.76;55.68
62055;BME280;48653;51.742;-1.256;2023-01-27T05:06:40;102400.87;;;3.03;57.89
62055;BME280;48653;51.742;-1.256;2023-01-27T05:09:06;102402.35;;;2.96;58.25
62055;BME280;48653;51.742;-1.256;2023-01-27T05:11:32;102403.37;;;3.73;57.35
62055;BME280;48653;51.742;-1.256;2023-01-27T05:13:58;102402.50;;;4.02;55.36
62055;BME280;48653;51.742;-1.256;2023-01-27T05:16:24;102402.94;;;3.98;54.78
62055;BME280;48653;51.742;-1.256;2023-01-27T05:18:50;102404.14;;;4.32;54.72
62055;BME280;48653;51.742;-1.256;2023-01-27T05:21:17;102409.02;;;4.95;53.23
62055;BME280;48653;51.742;-1.256;2023-01-27T05:23:40;102410.68;;;3.95;55.54
62055;BME280;48653;51.742;-1.256;2023-01-27T05:26:08;102410.44;;;4.32;54.47
62055;BME280;48653;51.742;-1.256;2023-01-27T05:28:31;102406.38;;;4.27;55.33
62055;BME280;48653;51.742;-1.256;2023-01-27T05:31:00;102407.79;;;3.54;57.00
62055;BME280;48653;51.742;-1.256;2023-01-27T05:33:22;102410.78;;;3.16;58.01
62055;BME280;48653;51.742;-1.256;2023-01-27T05:35:47;102409.60;;;4.05;56.77
62055;BME280;48653;51.742;-1.256;2023-01-27T05:38:12;102405.25;;;4.39;55.34
62055;BME280;48653;51.742;-1.256;2023-01-27T05:40:38;102403.73;;;4.55;55.14
62055;BME280;48653;51.742;-1.256;2023-01-27T05:43:04;102406.01;;;4.40;55.30
62055;BME280;48653;51.742;-1.256;2023-01-27T05:45:29;102404.88;;;3.74;56.83
62055;BME280;48653;51.742;-1.256;2023-01-27T05:47:54;102410.10;;;3.72;56.64
62055;BME280;48653;51.742;-1.256;2023-01-27T05:50:19;102415.31;;;4.09;56.58
62055;BME280;48653;51.742;-1.256;2023-01-27T05:52:46;102411.93;;;4.40;54.75
62055;BME280;48653;51.742;-1.256;2023-01-27T05:55:10;102414.53;;;4.39;54.74
62055;BME280;48653;51.742;-1.256;2023-01-27T05:57:36;102419.74;;;4.22;56.33
62055;BME280;48653;51.742;-1.256;2023-01-27T06:00:02;102417.08;;;4.08;57.53
62055;BME280;48653;51.742;-1.256;2023-01-27T06:02:26;102417.87;;;3.70;58.46
62055;BME280;48653;51.742;-1.256;2023-01-27T06:04:52;102418.21;;;4.85;56.48
62055;BME280;48653;51.742;-1.256;2023-01-27T06:07:17;102421.59;;;4.23;57.31
62055;BME280;48653;51.742;-1.256;2023-01-27T06:09:44;102421.56;;;4.50;55.88
62055;BME280;48653;51.742;-1.256;2023-01-27T06:12:08;102422.98;;;4.27;55.93
62055;BME280;48653;51.742;-1.256;2023-01-27T06:14:34;102421.97;;;4.33;55.15
62055;BME280;48653;51.742;-1.256;2023-01-27T06:16:59;102424.68;;;4.67;55.16
62055;BME280;48653;51.742;-1.256;2023-01-27T06:19:25;102428.25;;;4.44;54.95
62055;BME280;48653;51.742;-1.256;2023-01-27T06:21:51;102428.92;;;4.54;55.51
62055;BME280;48653;51.742;-1.256;2023-01-27T06:24:16;102427.21;;;4.88;54.55
62055;BME280;48653;51.742;-1.256;2023-01-27T06:26:42;102418.14;;;5.17;53.57
62055;BME280;48653;51.742;-1.256;2023-01-27T06:29:07;102413.87;;;5.31;53.90
62055;BME280;48653;51.742;-1.256;2023-01-27T06:31:33;102415.84;;;5.33;53.86
62055;BME280;48653;51.742;-1.256;2023-01-27T06:33:59;102415.34;;;5.26;53.42
62055;BME280;48653;51.742;-1.256;2023-01-27T06:36:25;102415.00;;;5.31;53.16
62055;BME280;48653;51.742;-1.256;2023-01-27T06:38:49;102417.75;;;4.58;54.75
62055;BME280;48653;51.742;-1.256;2023-01-27T06:41:15;102420.46;;;3.43;57.75
62055;BME280;48653;51.742;-1.256;2023-01-27T06:43:40;102421.12;;;3.58;57.67
62055;BME280;48653;51.742;-1.256;2023-01-27T06:46:05;102418.72;;;3.92;57.02
62055;BME280;48653;51.742;-1.256;2023-01-27T06:48:32;102417.82;;;4.20;55.73
62055;BME280;48653;51.742;-1.256;2023-01-27T06:50:57;102418.08;;;3.60;57.60
62055;BME280;48653;51.742;-1.256;2023-01-27T06:53:23;102412.92;;;4.75;55.04
62055;BME280;48653;51.742;-1.256;2023-01-27T06:55:48;102416.77;;;4.67;54.99
62055;BME280;48653;51.742;-1.256;2023-01-27T06:58:14;102417.33;;;4.72;54.73
62055;BME280;48653;51.742;-1.256;2023-01-27T07:00:39;102414.82;;;4.93;55.50
62055;BME280;48653;51.742;-1.256;2023-01-27T07:03:04;102416.79;;;4.37;55.91
62055;BME280;48653;51.742;-1.256;2023-01-27T07:05:30;102419.79;;;4.77;54.92
62055;BME280;48653;51.742;-1.256;2023-01-27T07:07:55;102418.21;;;4.83;55.55
62055;BME280;48653;51.742;-1.256;2023-01-27T07:10:21;102424.77;;;4.60;55.69
62055;BME280;48653;51.742;-1.256;2023-01-27T07:12:46;102423.54;;;4.68;55.66
62055;BME280;48653;51.742;-1.256;2023-01-27T07:15:12;102420.20;;;4.59;55.42
62055;BME280;48653;51.742;-1.256;2023-01-27T07:17:38;102426.99;;;4.67;55.04
62055;BME280;48653;51.742;-1.256;2023-01-27T07:20:04;102427.36;;;4.30;56.48
62055;BME280;48653;51.742;-1.256;2023-01-27T07:22:28;102433.74;;;4.63;55.14
62055;BME280;48653;51.742;-1.256;2023-01-27T07:24:54;102431.13;;;5.37;53.60
62055;BME280;48653;51.742;-1.256;2023-01-27T07:27:19;102430.76;;;5.51;53.05
62055;BME280;48653;51.742;-1.256;2023-01-27T07:29:45;102429.62;;;4.96;54.37
62055;BME280;48653;51.742;-1.256;2023-01-27T07:32:10;102432.08;;;5.68;52.93
62055;BME280;48653;51.742;-1.256;2023-01-27T07:34:36;102436.30;;;4.13;56.19
62055;BME280;48653;51.742;-1.256;2023-01-27T07:37:01;102441.75;;;3.92;56.97
62055;BME280;48653;51.742;-1.256;2023-01-27T07:39:28;102442.75;;;4.21;56.06
62055;BME280;48653;51.742;-1.256;2023-01-27T07:41:53;102444.77;;;4.45;55.79
62055;BME280;48653;51.742;-1.256;2023-01-27T07:44:19;102447.39;;;4.37;55.93
62055;BME280;48653;51.742;-1.256;2023-01-27T07:46:44;102445.33;;;4.87;54.66
62055;BME280;48653;51.742;-1.256;2023-01-27T07:49:09;102444.56;;;4.29;55.77
62055;BME280;48653;51.742;-1.256;2023-01-27T07:51:34;102447.16;;;4.47;56.89
62055;BME280;48653;51.742;-1.256;2023-01-27T07:53:59;102451.78;;;4.95;54.57
62055;BME280;48653;51.742;-1.256;2023-01-27T07:56:24;102452.09;;;4.35;56.62
62055;BME280;48653;51.742;-1.256;2023-01-27T07:58:52;102449.96;;;4.52;55.90
62055;BME280;48653;51.742;-1.256;2023-01-27T08:01:15;102446.69;;;4.90;55.58
62055;BME280;48653;51.742;-1.256;2023-01-27T08:03:40;102447.34;;;5.35;54.07
62055;BME280;48653;51.742;-1.256;2023-01-27T08:06:07;102443.56;;;5.33;54.55
62055;BME280;48653;51.742;-1.256;2023-01-27T08:08:31;102438.89;;;6.07;53.02
62055;BME280;48653;51.742;-1.256;2023-01-27T08:10:59;102435.09;;;5.17;54.72
62055;BME280;48653;51.742;-1.256;2023-01-27T08:13:22;102431.85;;;4.38;56.71
62055;BME280;48653;51.742;-1.256;2023-01-27T08:15:54;102429.96;;;5.15;55.31
62055;BME280;48653;51.742;-1.256;2023-01-27T08:18:13;102431.62;;;4.51;55.99
62055;BME280;48653;51.742;-1.256;2023-01-27T08:20:39;102434.70;;;5.45;54.07
62055;BME280;48653;51.742;-1.256;2023-01-27T08:23:04;102434.54;;;5.29;54.45
62055;BME280;48653;51.742;-1.256;2023-01-27T08:25:30;102437.35;;;4.41;55.73
62055;BME280;48653;51.742;-1.256;2023-01-27T08:27:56;102438.38;;;4.40;55.32
62055;BME280;48653;51.742;-1.256;2023-01-27T08:30:22;102441.00;;;4.32;56.25
62055;BME280;48653;51.742;-1.256;2023-01-27T08:32:47;102438.75;;;4.42;55.09
62055;BME280;48653;51.742;-1.256;2023-01-27T08:35:12;102438.49;;;4.63;54.54
62055;BME280;48653;51.742;-1.256;2023-01-27T08:37:38;102443.52;;;5.46;52.67
62055;BME280;48653;51.742;-1.256;2023-01-27T08:40:04;102440.28;;;5.30;53.08
62055;BME280;48653;51.742;-1.256;2023-01-27T08:42:28;102444.41;;;5.80;51.90
62055;BME280;48653;51.742;-1.256;2023-01-27T08:44:53;102450.20;;;4.48;54.18
62055;BME280;48653;51.742;-1.256;2023-01-27T08:47:19;102449.93;;;5.22;52.56
62055;BME280;48653;51.742;-1.256;2023-01-27T08:49:44;102461.45;;;5.11;52.72
62055;BME280;48653;51.742;-1.256;2023-01-27T08:52:10;102457.69;;;5.83;51.34
62055;BME280;48653;51.742;-1.256;2023-01-27T08:54:36;102464.94;;;5.39;51.55
62055;BME280;48653;51.742;-1.256;2023-01-27T08:57:00;102461.51;;;5.34;52.01
62055;BME280;48653;51.742;-1.256;2023-01-27T08:59:25;102465.48;;;5.82;51.46
62055;BME280;48653;51.742;-1.256;2023-01-27T09:01:50;102472.87;;;5.58;51.49
62055;BME280;48653;51.742;-1.256;2023-01-27T09:04:16;102470.15;;;6.12;50.87
62055;BME280;48653;51.742;-1.256;2023-01-27T09:06:41;102474.46;;;5.71;51.33
62055;BME280;48653;51.742;-1.256;2023-01-27T09:09:06;102482.53;;;5.37;51.83
62055;BME280;48653;51.742;-1.256;2023-01-27T09:11:32;102484.31;;;5.18;51.96
62055;BME280;48653;51.742;-1.256;2023-01-27T09:13:57;102488.31;;;5.68;51.28
62055;BME280;48653;51.742;-1.256;2023-01-27T09:16:22;102489.61;;;5.93;50.64
62055;BME280;48653;51.742;-1.256;2023-01-27T09:18:47;102491.37;;;5.96;50.65
62055;BME280;48653;51.742;-1.256;2023-01-27T09:21:13;102493.37;;;5.79;51.08
62055;BME280;48653;51.742;-1.256;2023-01-27T09:23:38;102489.05;;;6.49;49.65
62055;BME280;48653;51.742;-1.256;2023-01-27T09:26:03;102498.02;;;5.82;51.13
62055;BME280;48653;51.742;-1.256;2023-01-27T09:28:29;102498.44;;;6.14;51.01
62055;BME280;48653;51.742;-1.256;2023-01-27T09:30:56;102495.14;;;5.86;51.37
62055;BME280;48653;51.742;-1.256;2023-01-27T09:33:19;102501.46;;;5.82;50.60
62055;BME280;48653;51.742;-1.256;2023-01-27T09:35:47;102505.55;;;6.41;50.08
62055;BME280;48653;51.742;-1.256;2023-01-27T09:38:11;102508.68;;;6.18;50.40
62055;BME280;48653;51.742;-1.256;2023-01-27T09:40:42;102503.93;;;6.44;50.01
62055;BME280;48653;51.742;-1.256;2023-01-27T09:43:20;102506.11;;;6.19;50.21
62055;BME280;48653;51.742;-1.256;2023-01-27T09:45:41;102506.68;;;6.09;50.40
62055;BME280;48653;51.742;-1.256;2023-01-27T09:47:59;102505.65;;;6.15;49.86
62055;BME280;48653;51.742;-1.256;2023-01-27T09:50:26;102506.61;;;6.20;50.25
62055;BME280;48653;51.742;-1.256;2023-01-27T09:52:53;102501.87;;;6.30;49.85
62055;BME280;48653;51.742;-1.256;2023-01-27T09:55:10;102510.62;;;5.19;52.16
62055;BME280;48653;51.742;-1.256;2023-01-27T09:57:39;102503.14;;;6.50;50.47
62055;BME280;48653;51.742;-1.256;2023-01-27T10:00:07;102509.51;;;6.25;50.34
62055;BME280;48653;51.742;-1.256;2023-01-27T10:02:35;102514.50;;;5.84;50.39
62055;BME280;48653;51.742;-1.256;2023-01-27T10:04:59;102516.47;;;5.81;50.93
62055;BME280;48653;51.742;-1.256;2023-01-27T10:07:22;102512.54;;;5.35;51.54
62055;BME280;48653;51.742;-1.256;2023-01-27T10:09:47;102511.81;;;6.19;50.59
62055;BME280;48653;51.742;-1.256;2023-01-27T10:12:11;102516.14;;;4.85;51.12
62055;BME280;48653;51.742;-1.256;2023-01-27T10:14:36;102515.47;;;6.12;50.33
62055;BME280;48653;51.742;-1.256;2023-01-27T10:17:04;102515.78;;;6.10;51.15
62055;BME280;48653;51.742;-1.256;2023-01-27T10:19:28;102518.29;;;5.49;51.92
62055;BME280;48653;51.742;-1.256;2023-01-27T10:21:51;102517.67;;;6.74;49.67
62055;BME280;48653;51.742;-1.256;2023-01-27T10:24:15;102518.66;;;7.24;49.03
62055;BME280;48653;51.742;-1.256;2023-01-27T10:26:38;102517.04;;;6.55;49.65
62055;BME280;48653;51.742;-1.256;2023-01-27T10:29:06;102516.38;;;6.46;49.75
62055;BME280;48653;51.742;-1.256;2023-01-27T10:31:26;102517.86;;;6.55;49.33
62055;BME280;48653;51.742;-1.256;2023-01-27T10:33:51;102519.27;;;6.40;49.72
62055;BME280;48653;51.742;-1.256;2023-01-27T10:36:23;102524.99;;;6.35;50.25
62055;BME280;48653;51.742;-1.256;2023-01-27T10:38:44;102525.46;;;6.37;50.07
62055;BME280;48653;51.742;-1.256;2023-01-27T10:41:13;102519.59;;;6.61;49.14
62055;BME280;48653;51.742;-1.256;2023-01-27T10:43:32;102523.45;;;5.42;51.34
62055;BME280;48653;51.742;-1.256;2023-01-27T10:45:59;102521.70;;;5.84;50.81
62055;BME280;48653;51.742;-1.256;2023-01-27T10:48:33;102525.27;;;5.60;50.97
62055;BME280;48653;51.742;-1.256;2023-01-27T10:50:49;102513.86;;;6.90;49.14
62055;BME280;48653;51.742;-1.256;2023-01-27T10:53:13;102512.04;;;6.44;49.94
62055;BME280;48653;51.742;-1.256;2023-01-27T10:55:39;102516.02;;;6.01;49.85
62055;BME280;48653;51.742;-1.256;2023-01-27T10:58:05;102521.27;;;6.10;49.52
62055;BME280;48653;51.742;-1.256;2023-01-27T11:00:30;102522.11;;;5.69;51.12
62055;BME280;48653;51.742;-1.256;2023-01-27T11:02:57;102507.62;;;5.56;50.53
62055;BME280;48653;51.742;-1.256;2023-01-27T11:05:19;102506.67;;;6.97;48.44
62055;BME280;48653;51.742;-1.256;2023-01-27T11:07:47;102501.81;;;6.68;48.42
62055;BME280;48653;51.742;-1.256;2023-01-27T11:10:14;102503.40;;;7.11;48.60
62055;BME280;48653;51.742;-1.256;2023-01-27T11:12:35;102502.03;;;6.47;48.21
62055;BME280;48653;51.742;-1.256;2023-01-27T11:15:00;102496.94;;;7.50;46.74
62055;BME280;48653;51.742;-1.256;2023-01-27T11:17:28;102497.93;;;7.18;47.82
62055;BME280;48653;51.742;-1.256;2023-01-27T11:19:55;102493.84;;;6.88;48.35
62055;BME280;48653;51.742;-1.256;2023-01-27T11:22:18;102492.16;;;6.73;48.91
62055;BME280;48653;51.742;-1.256;2023-01-27T11:24:44;102492.04;;;6.69;48.83
62055;BME280;48653;51.742;-1.256;2023-01-27T11:27:12;102490.49;;;6.50;48.59
62055;BME280;48653;51.742;-1.256;2023-01-27T11:29:35;102491.86;;;6.63;48.37
62055;BME280;48653;51.742;-1.256;2023-01-27T11:31:59;102490.30;;;6.44;48.83
62055;BME280;48653;51.742;-1.256;2023-01-27T11:34:26;102491.46;;;6.34;48.87
62055;BME280;48653;51.742;-1.256;2023-01-27T11:36:45;102489.35;;;5.26;50.27
62055;BME280;48653;51.742;-1.256;2023-01-27T11:39:11;102485.77;;;5.72;50.80
62055;BME280;48653;51.742;-1.256;2023-01-27T11:41:37;102480.26;;;6.45;48.82
62055;BME280;48653;51.742;-1.256;2023-01-27T11:44:04;102484.03;;;6.26;49.25
62055;BME280;48653;51.742;-1.256;2023-01-27T11:46:26;102485.60;;;6.47;48.70
62055;BME280;48653;51.742;-1.256;2023-01-27T11:48:54;102479.19;;;6.28;48.95
62055;BME280;48653;51.742;-1.256;2023-01-27T11:51:20;102476.55;;;6.52;49.01
62055;BME280;48653;51.742;-1.256;2023-01-27T11:53:42;102477.61;;;6.65;48.78
62055;BME280;48653;51.742;-1.256;2023-01-27T11:56:08;102475.38;;;6.68;48.72
62055;BME280;48653;51.742;-1.256;2023-01-27T11:58:37;102468.65;;;6.54;49.04
62055;BME280;48653;51.742;-1.256;2023-01-27T12:00:59;102467.16;;;6.52;48.57
62055;BME280;48653;51.742;-1.256;2023-01-27T12:03:28;102464.61;;;6.98;48.23
62055;BME280;48653;51.742;-1.256;2023-01-27T12:05:52;102469.30;;;7.27;48.42
62055;BME280;48653;51.742;-1.256;2023-01-27T12:10:39;102465.14;;;7.74;46.57
62055;BME280;48653;51.742;-1.256;2023-01-27T12:13:08;102460.29;;;7.80;45.19
62055;BME280;48653;51.742;-1.256;2023-01-27T12:15:35;102464.59;;;7.00;46.21
62055;BME280;48653;51.742;-1.256;2023-01-27T12:17:55;102469.27;;;7.02;45.67
62055;BME280;48653;51.742;-1.256;2023-01-27T12:20:29;102469.60;;;7.04;46.69
62055;BME280;48653;51.742;-1.256;2023-01-27T12:22:45;102465.58;;;6.95;46.43
62055;BME280;48653;51.742;-1.256;2023-01-27T12:25:19;102465.55;;;7.33;46.20
62055;BME280;48653;51.742;-1.256;2023-01-27T12:27:39;102461.52;;;6.64;46.99
62055;BME280;48653;51.742;-1.256;2023-01-27T12:30:02;102461.37;;;7.11;47.09
62055;BME280;48653;51.742;-1.256;2023-01-27T12:32:33;102460.07;;;6.68;47.44
62055;BME280;48653;51.742;-1.256;2023-01-27T12:34:51;102459.37;;;6.89;46.63
62055;BME280;48653;51.742;-1.256;2023-01-27T12:37:22;102454.36;;;7.08;47.29
62055;BME280;48653;51.742;-1.256;2023-01-27T12:39:44;102457.72;;;7.50;47.13
62055;BME280;48653;51.742;-1.256;2023-01-27T12:42:08;102458.28;;;7.12;46.30
62055;BME280;48653;51.742;-1.256;2023-01-27T12:44:39;102448.89;;;6.95;46.28
62055;BME280;48653;51.742;-1.256;2023-01-27T12:46:59;102449.60;;;6.93;46.37